PWSweather.com
Personal Weather Stations
Station Observations
BOXTEL
Eindhoven,den Bosch,oirschot,schijndel,veghel, BoxtelNL

Eindhoven,den Bosch,oirschot,schijndel,veghelBoxtelNL

Lat: 51.5915928, Lon: 5.313994500000035

Elevation: 0

Station Type: Davis Vue

http://www.mooiweerboxtel.nl

Latest ConditionsUpdated 8:24:38 PM GMT+01:01 Saturday, Apr 20, 2019
Currently Today's Max Today's Min Today's Average
Temperature 67.5°F19.7°C 77.9°F25.5°C 49.6°F9.8°C 65.5°F18.6°C
Dew Point 41.7°F5.4°C 46.4°F8.0°C 37.6°F3.1°C 41.9°F5.5°C
Winds 0.2 mph ENE0.3 kmh ENE 5.8 mph -9.3 kmh - - 1.0 mph 1.6 kmh
Wind Gusts 4.3 mph6.9 kmh 12.8 mph20.6 kmh - -
Humidity 39% 76% 24% 46%
Pressure 30.30 in1026.1 mb 30.41 in1029.8 mb 30.29 in1025.7 mb -
Hour Temp Dew Point Humidity Winds Wind Gusts Pressure Precip Precip Rate Daily Precip Total
08:24 PM 67.5°F19.7°C 41.7°F5.4°C 39% 0.2 mph ENE0.3 kmh ENE 4.3 mph6.9 kmh 30.30 in1026.1 mb 0.00 in0.0 mm 0.00 in0.0 mm 0.00 in0.0 mm
08:19 PM 67.6°F19.8°C 41.7°F5.4°C 39% 0.2 mph E0.3 kmh E 2.0 mph3.2 kmh 30.30 in1026.1 mb 0.00 in0.0 mm 0.00 in0.0 mm 0.00 in0.0 mm
08:14 PM 67.8°F19.9°C 41.9°F5.5°C 39% 0.2 mph ENE0.3 kmh ENE 2.0 mph3.2 kmh 30.31 in1026.4 mb 0.00 in0.0 mm 0.00 in0.0 mm 0.00 in0.0 mm
08:09 PM 68.2°F20.1°C 42.3°F5.7°C 39% 0.2 mph NE0.3 kmh NE 5.4 mph8.7 kmh 30.30 in1026.1 mb 0.00 in0.0 mm 0.00 in0.0 mm 0.00 in0.0 mm
08:04 PM 68.5°F20.3°C 42.6°F5.9°C 39% 0.4 mph NE0.6 kmh NE 4.3 mph6.9 kmh 30.30 in1026.1 mb 0.00 in0.0 mm 0.00 in0.0 mm 0.00 in0.0 mm
07:59 PM 68.5°F20.3°C 41.9°F5.5°C 38% 0.9 mph NNE1.4 kmh NNE 3.1 mph5.0 kmh 30.30 in1026.1 mb 0.00 in0.0 mm 0.00 in0.0 mm 0.00 in0.0 mm
07:54 PM 69.1°F20.6°C 42.4°F5.8°C 38% 0.4 mph NE0.6 kmh NE 4.3 mph6.9 kmh 30.30 in1026.1 mb 0.00 in0.0 mm 0.00 in0.0 mm 0.00 in0.0 mm
07:49 PM 69.4°F20.8°C 42.1°F5.6°C 37% 0.7 mph N1.1 kmh N 4.3 mph6.9 kmh 30.30 in1026.1 mb 0.00 in0.0 mm 0.00 in0.0 mm 0.00 in0.0 mm
07:44 PM 69.6°F20.9°C 42.3°F5.7°C 37% 1.1 mph NNE1.8 kmh NNE 3.1 mph5.0 kmh 30.30 in1026.1 mb 0.00 in0.0 mm 0.00 in0.0 mm 0.00 in0.0 mm
07:39 PM 70.3°F21.3°C 42.1°F5.6°C 36% Calm Calm 2.0 mph3.2 kmh 30.30 in1026.1 mb 0.00 in0.0 mm 0.00 in0.0 mm 0.00 in0.0 mm
07:34 PM 70.9°F21.6°C 41.9°F5.5°C 35% 1.6 mph N2.6 kmh N 5.4 mph8.7 kmh 30.30 in1026.1 mb 0.00 in0.0 mm 0.00 in0.0 mm 0.00 in0.0 mm
07:29 PM 71.2°F21.8°C 41.4°F5.2°C 34% Calm Calm 5.4 mph8.7 kmh 30.30 in1026.1 mb 0.00 in0.0 mm 0.00 in0.0 mm 0.00 in0.0 mm
07:24 PM 71.6°F22.0°C 41.7°F5.4°C 34% 1.3 mph N2.1 kmh N 6.3 mph10.1 kmh 30.30 in1026.1 mb 0.00 in0.0 mm 0.00 in0.0 mm 0.00 in0.0 mm
07:19 PM 72.0°F22.2°C 41.4°F5.2°C 33% 1.3 mph NE2.1 kmh NE 3.1 mph5.0 kmh 30.30 in1026.1 mb 0.00 in0.0 mm 0.00 in0.0 mm 0.00 in0.0 mm
07:14 PM 72.1°F22.3°C 41.4°F5.2°C 33% 1.6 mph N2.6 kmh N 5.4 mph8.7 kmh 30.30 in1026.1 mb 0.00 in0.0 mm 0.00 in0.0 mm 0.00 in0.0 mm
07:09 PM 72.5°F22.5°C 41.7°F5.4°C 33% 2.2 mph NE3.5 kmh NE 6.3 mph10.1 kmh 30.30 in1026.1 mb 0.00 in0.0 mm 0.00 in0.0 mm 0.00 in0.0 mm
07:04 PM 72.9°F22.7°C 41.4°F5.2°C 32% 1.6 mph N2.6 kmh N 7.4 mph11.9 kmh 30.30 in1026.1 mb 0.00 in0.0 mm 0.00 in0.0 mm 0.00 in0.0 mm
06:59 PM 73.4°F23.0°C 41.0°F5.0°C 31% 0.7 mph NE1.1 kmh NE 6.3 mph10.1 kmh 30.30 in1026.1 mb 0.00 in0.0 mm 0.00 in0.0 mm 0.00 in0.0 mm
06:54 PM 73.8°F23.2°C 41.2°F5.1°C 31% 0.4 mph N0.6 kmh N 4.3 mph6.9 kmh 30.29 in1025.7 mb 0.00 in0.0 mm 0.00 in0.0 mm 0.00 in0.0 mm
06:49 PM 74.1°F23.4°C 40.6°F4.8°C 30% Calm Calm 7.4 mph11.9 kmh 30.29 in1025.7 mb 0.00 in0.0 mm 0.00 in0.0 mm 0.00 in0.0 mm
06:44 PM 74.5°F23.6°C 41.0°F5.0°C 30% 1.8 mph E2.9 kmh E 5.4 mph8.7 kmh 30.29 in1025.7 mb 0.00 in0.0 mm 0.00 in0.0 mm 0.00 in0.0 mm
06:39 PM 74.7°F23.7°C 41.2°F5.1°C 30% 0.9 mph ENE1.4 kmh ENE 6.3 mph10.1 kmh 30.29 in1025.7 mb 0.00 in0.0 mm 0.00 in0.0 mm 0.00 in0.0 mm
06:34 PM 75.0°F23.9°C 41.5°F5.3°C 30% 0.9 mph NE1.4 kmh NE 3.1 mph5.0 kmh 30.29 in1025.7 mb 0.00 in0.0 mm 0.00 in0.0 mm 0.00 in0.0 mm
06:29 PM 75.4°F24.1°C 41.0°F5.0°C 29% 0.9 mph S1.4 kmh S 6.3 mph10.1 kmh 30.29 in1025.7 mb 0.00 in0.0 mm 0.00 in0.0 mm 0.00 in0.0 mm
06:24 PM 75.9°F24.4°C 41.4°F5.2°C 29% 0.7 mph ENE1.1 kmh ENE 4.3 mph6.9 kmh 30.29 in1025.7 mb 0.00 in0.0 mm 0.00 in0.0 mm 0.00 in0.0 mm
06:19 PM 76.1°F24.5°C 41.5°F5.3°C 29% 0.9 mph N1.4 kmh N 5.4 mph8.7 kmh 30.29 in1025.7 mb 0.00 in0.0 mm 0.00 in0.0 mm 0.00 in0.0 mm
06:14 PM 76.1°F24.5°C 41.5°F5.3°C 29% 0.4 mph NNE0.6 kmh NNE 4.3 mph6.9 kmh 30.29 in1025.7 mb 0.00 in0.0 mm 0.00 in0.0 mm 0.00 in0.0 mm
06:09 PM 76.3°F24.6°C 40.8°F4.9°C 28% 0.7 mph NE1.1 kmh NE 4.3 mph6.9 kmh 30.30 in1026.1 mb 0.00 in0.0 mm 0.00 in0.0 mm 0.00 in0.0 mm
06:04 PM 76.3°F24.6°C 39.9°F4.4°C 27% 2.9 mph E4.7 kmh E 6.3 mph10.1 kmh 30.30 in1026.1 mb 0.00 in0.0 mm 0.00 in0.0 mm 0.00 in0.0 mm
05:59 PM 76.5°F24.7°C 39.9°F4.4°C 27% 2.2 mph NE3.5 kmh NE 6.3 mph10.1 kmh 30.30 in1026.1 mb 0.00 in0.0 mm 0.00 in0.0 mm 0.00 in0.0 mm
05:54 PM 76.8°F24.9°C 40.3°F4.6°C 27% 1.3 mph ENE2.1 kmh ENE 5.4 mph8.7 kmh 30.30 in1026.1 mb 0.00 in0.0 mm 0.00 in0.0 mm 0.00 in0.0 mm
05:49 PM 77.0°F25.0°C 40.5°F4.7°C 27% 1.3 mph NE2.1 kmh NE 8.5 mph13.7 kmh 30.31 in1026.4 mb 0.00 in0.0 mm 0.00 in0.0 mm 0.00 in0.0 mm
05:44 PM 77.0°F25.0°C 40.5°F4.7°C 27% 0.2 mph NNW0.3 kmh NNW 6.3 mph10.1 kmh 30.30 in1026.1 mb 0.00 in0.0 mm 0.00 in0.0 mm 0.00 in0.0 mm
05:39 PM 77.2°F25.1°C 39.6°F4.2°C 26% 1.6 mph E2.6 kmh E 6.3 mph10.1 kmh 30.31 in1026.4 mb 0.00 in0.0 mm 0.00 in0.0 mm 0.00 in0.0 mm
05:34 PM 77.4°F25.2°C 40.8°F4.9°C 27% 1.3 mph NE2.1 kmh NE 4.3 mph6.9 kmh 30.31 in1026.4 mb 0.00 in0.0 mm 0.00 in0.0 mm 0.00 in0.0 mm
05:29 PM 77.2°F25.1°C 39.6°F4.2°C 26% 0.9 mph NW1.4 kmh NW 4.3 mph6.9 kmh 30.31 in1026.4 mb 0.00 in0.0 mm 0.00 in0.0 mm 0.00 in0.0 mm
05:24 PM 77.5°F25.3°C 39.0°F3.9°C 25% 2.7 mph N4.3 kmh N 6.3 mph10.1 kmh 30.31 in1026.4 mb 0.00 in0.0 mm 0.00 in0.0 mm 0.00 in0.0 mm
05:19 PM 77.5°F25.3°C 39.9°F4.4°C 26% 1.6 mph NE2.6 kmh NE 6.3 mph10.1 kmh 30.31 in1026.4 mb 0.00 in0.0 mm 0.00 in0.0 mm 0.00 in0.0 mm
05:14 PM 77.2°F25.1°C 38.7°F3.7°C 25% 0.4 mph NE0.6 kmh NE 5.4 mph8.7 kmh 30.31 in1026.4 mb 0.00 in0.0 mm 0.00 in0.0 mm 0.00 in0.0 mm
05:09 PM 77.2°F25.1°C 37.6°F3.1°C 24% 2.5 mph NE4.0 kmh NE 7.4 mph11.9 kmh 30.31 in1026.4 mb 0.00 in0.0 mm 0.00 in0.0 mm 0.00 in0.0 mm
05:04 PM 77.4°F25.2°C 37.8°F3.2°C 24% 3.1 mph ENE5.0 kmh ENE 8.5 mph13.7 kmh 30.31 in1026.4 mb 0.00 in0.0 mm 0.00 in0.0 mm 0.00 in0.0 mm
04:59 PM 77.4°F25.2°C 37.8°F3.2°C 24% 2.2 mph E3.5 kmh E 7.4 mph11.9 kmh 30.31 in1026.4 mb 0.00 in0.0 mm 0.00 in0.0 mm 0.00 in0.0 mm
04:54 PM 77.4°F25.2°C 38.8°F3.8°C 25% 3.4 mph NE5.5 kmh NE 8.5 mph13.7 kmh 30.31 in1026.4 mb 0.00 in0.0 mm 0.00 in0.0 mm 0.00 in0.0 mm
04:49 PM 77.5°F25.3°C 37.9°F3.3°C 24% 3.4 mph NE5.5 kmh NE 7.4 mph11.9 kmh 30.32 in1026.8 mb 0.00 in0.0 mm 0.00 in0.0 mm 0.00 in0.0 mm
04:44 PM 77.2°F25.1°C 38.7°F3.7°C 25% 3.1 mph NE5.0 kmh NE 8.5 mph13.7 kmh 30.32 in1026.8 mb 0.00 in0.0 mm 0.00 in0.0 mm 0.00 in0.0 mm
04:39 PM 77.0°F25.0°C 38.5°F3.6°C 25% 4.5 mph NNE7.2 kmh NNE 7.4 mph11.9 kmh 30.32 in1026.8 mb 0.00 in0.0 mm 0.00 in0.0 mm 0.00 in0.0 mm
04:29 PM 77.9°F25.5°C 39.2°F4.0°C 25% 5.8 mph NE9.3 kmh NE 11.6 mph18.7 kmh 30.32 in1026.8 mb 0.00 in0.0 mm 0.00 in0.0 mm 0.00 in0.0 mm
04:24 PM 77.5°F25.3°C 39.0°F3.9°C 25% Calm Calm 4.3 mph6.9 kmh 30.32 in1026.8 mb 0.00 in0.0 mm 0.00 in0.0 mm 0.00 in0.0 mm
04:19 PM 77.7°F25.4°C 39.0°F3.9°C 25% 1.6 mph N2.6 kmh N 6.3 mph10.1 kmh 30.32 in1026.8 mb 0.00 in0.0 mm 0.00 in0.0 mm 0.00 in0.0 mm
04:14 PM 77.7°F25.4°C 39.0°F3.9°C 25% 0.9 mph NNE1.4 kmh NNE 5.4 mph8.7 kmh 30.32 in1026.8 mb 0.00 in0.0 mm 0.00 in0.0 mm 0.00 in0.0 mm
04:08 PM 77.4°F25.2°C 39.7°F4.3°C 26% 1.1 mph NE1.8 kmh NE 5.4 mph8.7 kmh 30.33 in1027.1 mb 0.00 in0.0 mm 0.00 in0.0 mm 0.00 in0.0 mm
04:03 PM 77.4°F25.2°C 38.8°F3.8°C 25% 3.1 mph NNE5.0 kmh NNE 6.3 mph10.1 kmh 30.33 in1027.1 mb 0.00 in0.0 mm 0.00 in0.0 mm 0.00 in0.0 mm
03:58 PM 77.4°F25.2°C 39.7°F4.3°C 26% 2.2 mph NE3.5 kmh NE 7.4 mph11.9 kmh 30.33 in1027.1 mb 0.00 in0.0 mm 0.00 in0.0 mm 0.00 in0.0 mm
03:53 PM 77.7°F25.4°C 39.0°F3.9°C 25% 1.3 mph 2.1 kmh 8.5 mph13.7 kmh 30.33 in1027.1 mb 0.00 in0.0 mm 0.00 in0.0 mm 0.00 in0.0 mm
03:48 PM 77.7°F25.4°C 40.1°F4.5°C 26% 2.9 mph NNE4.7 kmh NNE 6.3 mph10.1 kmh 30.33 in1027.1 mb 0.00 in0.0 mm 0.00 in0.0 mm 0.00 in0.0 mm
03:43 PM 77.4°F25.2°C 39.7°F4.3°C 26% 0.2 mph NE0.3 kmh NE 7.4 mph11.9 kmh 30.33 in1027.1 mb 0.00 in0.0 mm 0.00 in0.0 mm 0.00 in0.0 mm
03:38 PM 77.5°F25.3°C 39.9°F4.4°C 26% 2.2 mph N3.5 kmh N 6.3 mph10.1 kmh 30.33 in1027.1 mb 0.00 in0.0 mm 0.00 in0.0 mm 0.00 in0.0 mm
03:33 PM 77.7°F25.4°C 40.1°F4.5°C 26% 0.9 mph NE1.4 kmh NE 4.3 mph6.9 kmh 30.33 in1027.1 mb 0.00 in0.0 mm 0.00 in0.0 mm 0.00 in0.0 mm
03:28 PM 77.4°F25.2°C 39.7°F4.3°C 26% 2.0 mph NE3.2 kmh NE 10.5 mph16.9 kmh 30.34 in1027.4 mb 0.00 in0.0 mm 0.00 in0.0 mm 0.00 in0.0 mm
03:23 PM 77.7°F25.4°C 40.1°F4.5°C 26% 1.8 mph NE2.9 kmh NE 8.5 mph13.7 kmh 30.33 in1027.1 mb 0.00 in0.0 mm 0.00 in0.0 mm 0.00 in0.0 mm
03:18 PM 77.5°F25.3°C 39.9°F4.4°C 26% 2.0 mph NE3.2 kmh NE 6.3 mph10.1 kmh 30.34 in1027.4 mb 0.00 in0.0 mm 0.00 in0.0 mm 0.00 in0.0 mm
03:13 PM 77.5°F25.3°C 39.9°F4.4°C 26% 2.2 mph NE3.5 kmh NE 6.3 mph10.1 kmh 30.34 in1027.4 mb 0.00 in0.0 mm 0.00 in0.0 mm 0.00 in0.0 mm
03:08 PM 77.4°F25.2°C 39.7°F4.3°C 26% 1.1 mph N1.8 kmh N 4.3 mph6.9 kmh 30.34 in1027.4 mb 0.00 in0.0 mm 0.00 in0.0 mm 0.00 in0.0 mm
03:03 PM 77.4°F25.2°C 39.7°F4.3°C 26% 4.3 mph NE6.9 kmh NE 10.5 mph16.9 kmh 30.34 in1027.4 mb 0.00 in0.0 mm 0.00 in0.0 mm 0.00 in0.0 mm
02:58 PM 77.5°F25.3°C 41.0°F5.0°C 27% 2.5 mph NNW4.0 kmh NNW 7.4 mph11.9 kmh 30.34 in1027.4 mb 0.00 in0.0 mm 0.00 in0.0 mm 0.00 in0.0 mm
02:53 PM 77.5°F25.3°C 41.0°F5.0°C 27% 2.2 mph N3.5 kmh N 10.5 mph16.9 kmh 30.34 in1027.4 mb 0.00 in0.0 mm 0.00 in0.0 mm 0.00 in0.0 mm
02:48 PM 77.4°F25.2°C 40.8°F4.9°C 27% 3.1 mph NNE5.0 kmh NNE 10.5 mph16.9 kmh 30.34 in1027.4 mb 0.00 in0.0 mm 0.00 in0.0 mm 0.00 in0.0 mm
02:43 PM 77.2°F25.1°C 40.6°F4.8°C 27% 2.7 mph NE4.3 kmh NE 9.6 mph15.4 kmh 30.34 in1027.4 mb 0.00 in0.0 mm 0.00 in0.0 mm 0.00 in0.0 mm
02:38 PM 76.8°F24.9°C 40.3°F4.6°C 27% 2.7 mph NE4.3 kmh NE 10.5 mph16.9 kmh 30.34 in1027.4 mb 0.00 in0.0 mm 0.00 in0.0 mm 0.00 in0.0 mm
02:33 PM 77.5°F25.3°C 41.0°F5.0°C 27% 2.0 mph NNE3.2 kmh NNE 5.4 mph8.7 kmh 30.35 in1027.8 mb 0.00 in0.0 mm 0.00 in0.0 mm 0.00 in0.0 mm
02:28 PM 77.9°F25.5°C 41.2°F5.1°C 27% 2.2 mph ENE3.5 kmh ENE 7.4 mph11.9 kmh 30.35 in1027.8 mb 0.00 in0.0 mm 0.00 in0.0 mm 0.00 in0.0 mm
02:23 PM 77.9°F25.5°C 40.3°F4.6°C 26% 1.3 mph S2.1 kmh S 6.3 mph10.1 kmh 30.35 in1027.8 mb 0.00 in0.0 mm 0.00 in0.0 mm 0.00 in0.0 mm
02:18 PM 77.5°F25.3°C 39.9°F4.4°C 26% 3.8 mph NE6.1 kmh NE 9.6 mph15.4 kmh 30.35 in1027.8 mb 0.00 in0.0 mm 0.00 in0.0 mm 0.00 in0.0 mm
02:13 PM 77.7°F25.4°C 40.1°F4.5°C 26% 4.3 mph NE6.9 kmh NE 9.6 mph15.4 kmh 30.35 in1027.8 mb 0.00 in0.0 mm 0.00 in0.0 mm 0.00 in0.0 mm
02:08 PM 77.9°F25.5°C 39.2°F4.0°C 25% 0.7 mph NE1.1 kmh NE 7.4 mph11.9 kmh 30.36 in1028.1 mb 0.00 in0.0 mm 0.00 in0.0 mm 0.00 in0.0 mm
02:03 PM 77.5°F25.3°C 39.9°F4.4°C 26% 1.6 mph NE2.6 kmh NE 6.3 mph10.1 kmh 30.36 in1028.1 mb 0.00 in0.0 mm 0.00 in0.0 mm 0.00 in0.0 mm
01:58 PM 77.7°F25.4°C 40.1°F4.5°C 26% 3.6 mph E5.8 kmh E 9.6 mph15.4 kmh 30.36 in1028.1 mb 0.00 in0.0 mm 0.00 in0.0 mm 0.00 in0.0 mm
01:53 PM 77.5°F25.3°C 39.9°F4.4°C 26% 0.2 mph SSE0.3 kmh SSE 4.3 mph6.9 kmh 30.36 in1028.1 mb 0.00 in0.0 mm 0.00 in0.0 mm 0.00 in0.0 mm
01:48 PM 77.2°F25.1°C 41.5°F5.3°C 28% 1.1 mph NE1.8 kmh NE 6.3 mph10.1 kmh 30.36 in1028.1 mb 0.00 in0.0 mm 0.00 in0.0 mm 0.00 in0.0 mm
01:43 PM 77.0°F25.0°C 41.4°F5.2°C 28% 3.1 mph NNE5.0 kmh NNE 7.4 mph11.9 kmh 30.36 in1028.1 mb 0.00 in0.0 mm 0.00 in0.0 mm 0.00 in0.0 mm
01:38 PM 77.0°F25.0°C 40.5°F4.7°C 27% 2.9 mph N4.7 kmh N 8.5 mph13.7 kmh 30.36 in1028.1 mb 0.00 in0.0 mm 0.00 in0.0 mm 0.00 in0.0 mm
01:33 PM 77.2°F25.1°C 40.6°F4.8°C 27% 2.5 mph NNE4.0 kmh NNE 8.5 mph13.7 kmh 30.36 in1028.1 mb 0.00 in0.0 mm 0.00 in0.0 mm 0.00 in0.0 mm
01:28 PM 76.8°F24.9°C 41.2°F5.1°C 28% 1.8 mph NW2.9 kmh NW 9.6 mph15.4 kmh 30.36 in1028.1 mb 0.00 in0.0 mm 0.00 in0.0 mm 0.00 in0.0 mm
01:23 PM 77.5°F25.3°C 41.0°F5.0°C 27% 0.2 mph ENE0.3 kmh ENE 5.4 mph8.7 kmh 30.36 in1028.1 mb 0.00 in0.0 mm 0.00 in0.0 mm 0.00 in0.0 mm
01:18 PM 77.5°F25.3°C 41.9°F5.5°C 28% 2.5 mph NNE4.0 kmh NNE 6.3 mph10.1 kmh 30.37 in1028.4 mb 0.00 in0.0 mm 0.00 in0.0 mm 0.00 in0.0 mm
01:13 PM 77.4°F25.2°C 40.8°F4.9°C 27% 2.0 mph SE3.2 kmh SE 6.3 mph10.1 kmh 30.37 in1028.4 mb 0.00 in0.0 mm 0.00 in0.0 mm 0.00 in0.0 mm
01:08 PM 77.4°F25.2°C 41.7°F5.4°C 28% 0.7 mph 1.1 kmh 9.6 mph15.4 kmh 30.37 in1028.4 mb 0.00 in0.0 mm 0.00 in0.0 mm 0.00 in0.0 mm
01:03 PM 77.2°F25.1°C 41.5°F5.3°C 28% 0.2 mph SE0.3 kmh SE 4.3 mph6.9 kmh 30.37 in1028.4 mb 0.00 in0.0 mm 0.00 in0.0 mm 0.00 in0.0 mm
12:58 PM 76.5°F24.7°C 41.0°F5.0°C 28% 0.7 mph SE1.1 kmh SE 7.4 mph11.9 kmh 30.37 in1028.4 mb 0.00 in0.0 mm 0.00 in0.0 mm 0.00 in0.0 mm
12:53 PM 76.6°F24.8°C 41.2°F5.1°C 28% 3.1 mph NE5.0 kmh NE 12.8 mph20.6 kmh 30.37 in1028.4 mb 0.00 in0.0 mm 0.00 in0.0 mm 0.00 in0.0 mm
12:48 PM 76.6°F24.8°C 41.2°F5.1°C 28% 0.4 mph NNE0.6 kmh NNE 6.3 mph10.1 kmh 30.38 in1028.8 mb 0.00 in0.0 mm 0.00 in0.0 mm 0.00 in0.0 mm
12:43 PM 76.3°F24.6°C 41.7°F5.4°C 29% 2.7 mph N4.3 kmh N 10.5 mph16.9 kmh 30.38 in1028.8 mb 0.00 in0.0 mm 0.00 in0.0 mm 0.00 in0.0 mm
12:38 PM 76.3°F24.6°C 41.7°F5.4°C 29% 3.4 mph NNE5.5 kmh NNE 11.6 mph18.7 kmh 30.38 in1028.8 mb 0.00 in0.0 mm 0.00 in0.0 mm 0.00 in0.0 mm
12:33 PM 76.5°F24.7°C 41.0°F5.0°C 28% 3.4 mph NNE5.5 kmh NNE 7.4 mph11.9 kmh 30.38 in1028.8 mb 0.00 in0.0 mm 0.00 in0.0 mm 0.00 in0.0 mm
12:28 PM 76.1°F24.5°C 41.5°F5.3°C 29% 2.9 mph N4.7 kmh N 8.5 mph13.7 kmh 30.38 in1028.8 mb 0.00 in0.0 mm 0.00 in0.0 mm 0.00 in0.0 mm
12:23 PM 76.3°F24.6°C 41.7°F5.4°C 29% 1.3 mph N2.1 kmh N 8.5 mph13.7 kmh 30.38 in1028.8 mb 0.00 in0.0 mm 0.00 in0.0 mm 0.00 in0.0 mm
12:18 PM 75.9°F24.4°C 41.4°F5.2°C 29% 3.1 mph NE5.0 kmh NE 8.5 mph13.7 kmh 30.38 in1028.8 mb 0.00 in0.0 mm 0.00 in0.0 mm 0.00 in0.0 mm
12:13 PM 75.9°F24.4°C 41.4°F5.2°C 29% 2.7 mph SSE4.3 kmh SSE 8.5 mph13.7 kmh 30.38 in1028.8 mb 0.00 in0.0 mm 0.00 in0.0 mm 0.00 in0.0 mm
12:08 PM 75.6°F24.2°C 41.0°F5.0°C 29% 1.3 mph NW2.1 kmh NW 10.5 mph16.9 kmh 30.39 in1029.1 mb 0.00 in0.0 mm 0.00 in0.0 mm 0.00 in0.0 mm
12:03 PM 75.7°F24.3°C 42.1°F5.6°C 30% 1.1 mph W1.8 kmh W 5.4 mph8.7 kmh 30.38 in1028.8 mb 0.00 in0.0 mm 0.00 in0.0 mm 0.00 in0.0 mm
11:58 AM 75.4°F24.1°C 41.0°F5.0°C 29% 2.7 mph NE4.3 kmh NE 10.5 mph16.9 kmh 30.39 in1029.1 mb 0.00 in0.0 mm 0.00 in0.0 mm 0.00 in0.0 mm
11:53 AM 75.2°F24.0°C 40.8°F4.9°C 29% 1.8 mph ESE2.9 kmh ESE 7.4 mph11.9 kmh 30.39 in1029.1 mb 0.00 in0.0 mm 0.00 in0.0 mm 0.00 in0.0 mm
11:43 AM 75.0°F23.9°C 41.5°F5.3°C 30% 2.2 mph NE3.5 kmh NE 6.3 mph10.1 kmh 30.39 in1029.1 mb 0.00 in0.0 mm 0.00 in0.0 mm 0.00 in0.0 mm
11:38 AM 74.5°F23.6°C 42.6°F5.9°C 32% 1.8 mph ENE2.9 kmh ENE 11.6 mph18.7 kmh 30.39 in1029.1 mb 0.00 in0.0 mm 0.00 in0.0 mm 0.00 in0.0 mm
11:33 AM 75.0°F23.9°C 42.3°F5.7°C 31% 4.5 mph NE7.2 kmh NE 10.5 mph16.9 kmh 30.39 in1029.1 mb 0.00 in0.0 mm 0.00 in0.0 mm 0.00 in0.0 mm
11:28 AM 74.8°F23.8°C 42.3°F5.7°C 31% 2.5 mph SE4.0 kmh SE 6.3 mph10.1 kmh 30.39 in1029.1 mb 0.00 in0.0 mm 0.00 in0.0 mm 0.00 in0.0 mm
11:23 AM 74.8°F23.8°C 42.3°F5.7°C 31% 1.6 mph E2.6 kmh E 5.4 mph8.7 kmh 30.39 in1029.1 mb 0.00 in0.0 mm 0.00 in0.0 mm 0.00 in0.0 mm
11:18 AM 74.1°F23.4°C 42.4°F5.8°C 32% 0.4 mph NNE0.6 kmh NNE 8.5 mph13.7 kmh 30.39 in1029.1 mb 0.00 in0.0 mm 0.00 in0.0 mm 0.00 in0.0 mm
11:13 AM 73.9°F23.3°C 41.4°F5.2°C 31% 2.9 mph ENE4.7 kmh ENE 7.4 mph11.9 kmh 30.39 in1029.1 mb 0.00 in0.0 mm 0.00 in0.0 mm 0.00 in0.0 mm
11:08 AM 73.8°F23.2°C 42.1°F5.6°C 32% 1.6 mph NNE2.6 kmh NNE 5.4 mph8.7 kmh 30.39 in1029.1 mb 0.00 in0.0 mm 0.00 in0.0 mm 0.00 in0.0 mm
11:03 AM 73.2°F22.9°C 42.4°F5.8°C 33% 0.9 mph NE1.4 kmh NE 8.5 mph13.7 kmh 30.39 in1029.1 mb 0.00 in0.0 mm 0.00 in0.0 mm 0.00 in0.0 mm
10:58 AM 72.9°F22.7°C 42.1°F5.6°C 33% 3.4 mph NE5.5 kmh NE 9.6 mph15.4 kmh 30.39 in1029.1 mb 0.00 in0.0 mm 0.00 in0.0 mm 0.00 in0.0 mm
10:53 AM 72.5°F22.5°C 42.6°F5.9°C 34% 1.1 mph NE1.8 kmh NE 7.4 mph11.9 kmh 30.39 in1029.1 mb 0.00 in0.0 mm 0.00 in0.0 mm 0.00 in0.0 mm
10:48 AM 72.1°F22.3°C 42.3°F5.7°C 34% 2.9 mph NNW4.7 kmh NNW 8.5 mph13.7 kmh 30.40 in1029.5 mb 0.00 in0.0 mm 0.00 in0.0 mm 0.00 in0.0 mm
10:42 AM 71.8°F22.1°C 42.6°F5.9°C 35% 3.4 mph NNE5.5 kmh NNE 6.3 mph10.1 kmh 30.40 in1029.5 mb 0.00 in0.0 mm 0.00 in0.0 mm 0.00 in0.0 mm
10:37 AM 71.6°F22.0°C 43.2°F6.2°C 36% 1.3 mph NE2.1 kmh NE 5.4 mph8.7 kmh 30.40 in1029.5 mb 0.00 in0.0 mm 0.00 in0.0 mm 0.00 in0.0 mm
10:32 AM 71.2°F21.8°C 43.0°F6.1°C 36% 1.3 mph NE2.1 kmh NE 9.6 mph15.4 kmh 30.40 in1029.5 mb 0.00 in0.0 mm 0.00 in0.0 mm 0.00 in0.0 mm
10:27 AM 70.7°F21.5°C 43.9°F6.6°C 38% 3.1 mph SE5.0 kmh SE 6.3 mph10.1 kmh 30.40 in1029.5 mb 0.00 in0.0 mm 0.00 in0.0 mm 0.00 in0.0 mm
10:22 AM 70.2°F21.2°C 44.8°F7.1°C 40% 1.6 mph NE2.6 kmh NE 9.6 mph15.4 kmh 30.40 in1029.5 mb 0.00 in0.0 mm 0.00 in0.0 mm 0.00 in0.0 mm
10:17 AM 69.8°F21.0°C 44.4°F6.9°C 40% 2.0 mph SE3.2 kmh SE 7.4 mph11.9 kmh 30.40 in1029.5 mb 0.00 in0.0 mm 0.00 in0.0 mm 0.00 in0.0 mm
10:12 AM 69.1°F20.6°C 45.0°F7.2°C 42% 1.8 mph N2.9 kmh N 5.4 mph8.7 kmh 30.40 in1029.5 mb 0.00 in0.0 mm 0.00 in0.0 mm 0.00 in0.0 mm
10:07 AM 68.5°F20.3°C 44.6°F7.0°C 42% 1.6 mph NE2.6 kmh NE 8.5 mph13.7 kmh 30.40 in1029.5 mb 0.00 in0.0 mm 0.00 in0.0 mm 0.00 in0.0 mm
10:02 AM 68.2°F20.1°C 44.8°F7.1°C 43% 2.2 mph E3.5 kmh E 7.4 mph11.9 kmh 30.40 in1029.5 mb 0.00 in0.0 mm 0.00 in0.0 mm 0.00 in0.0 mm
09:57 AM 68.2°F20.1°C 44.8°F7.1°C 43% 3.8 mph NE6.1 kmh NE 9.6 mph15.4 kmh 30.40 in1029.5 mb 0.00 in0.0 mm 0.00 in0.0 mm 0.00 in0.0 mm
09:52 AM 68.2°F20.1°C 46.0°F7.8°C 45% 2.7 mph N4.3 kmh N 6.3 mph10.1 kmh 30.40 in1029.5 mb 0.00 in0.0 mm 0.00 in0.0 mm 0.00 in0.0 mm
09:47 AM 67.3°F19.6°C 45.9°F7.7°C 46% 0.4 mph SE0.6 kmh SE 6.3 mph10.1 kmh 30.40 in1029.5 mb 0.00 in0.0 mm 0.00 in0.0 mm 0.00 in0.0 mm
09:42 AM 66.7°F19.3°C 45.9°F7.7°C 47% 1.1 mph NE1.8 kmh NE 5.4 mph8.7 kmh 30.41 in1029.8 mb 0.00 in0.0 mm 0.00 in0.0 mm 0.00 in0.0 mm
09:37 AM 66.7°F19.3°C 45.9°F7.7°C 47% 2.5 mph N4.0 kmh N 5.4 mph8.7 kmh 30.41 in1029.8 mb 0.00 in0.0 mm 0.00 in0.0 mm 0.00 in0.0 mm
09:32 AM 66.2°F19.0°C 44.8°F7.1°C 46% 1.1 mph NE1.8 kmh NE 6.3 mph10.1 kmh 30.41 in1029.8 mb 0.00 in0.0 mm 0.00 in0.0 mm 0.00 in0.0 mm
09:27 AM 66.0°F18.9°C 45.7°F7.6°C 48% 1.1 mph NNE1.8 kmh NNE 4.3 mph6.9 kmh 30.41 in1029.8 mb 0.00 in0.0 mm 0.00 in0.0 mm 0.00 in0.0 mm
09:22 AM 65.7°F18.7°C 46.0°F7.8°C 49% 0.2 mph NE0.3 kmh NE 7.4 mph11.9 kmh 30.41 in1029.8 mb 0.00 in0.0 mm 0.00 in0.0 mm 0.00 in0.0 mm
09:17 AM 65.5°F18.6°C 46.4°F8.0°C 50% 1.6 mph N2.6 kmh N 6.3 mph10.1 kmh 30.41 in1029.8 mb 0.00 in0.0 mm 0.00 in0.0 mm 0.00 in0.0 mm
09:12 AM 65.5°F18.6°C 46.4°F8.0°C 50% 0.4 mph NE0.6 kmh NE 5.4 mph8.7 kmh 30.41 in1029.8 mb 0.00 in0.0 mm 0.00 in0.0 mm 0.00 in0.0 mm
09:07 AM 65.3°F18.5°C 45.7°F7.6°C 49% Calm Calm 3.1 mph5.0 kmh 30.41 in1029.8 mb 0.00 in0.0 mm 0.00 in0.0 mm 0.00 in0.0 mm
09:02 AM 64.9°F18.3°C 46.4°F8.0°C 51% Calm Calm 2.0 mph3.2 kmh 30.41 in1029.8 mb 0.00 in0.0 mm 0.00 in0.0 mm 0.00 in0.0 mm
08:57 AM 64.6°F18.1°C 46.0°F7.8°C 51% Calm Calm 4.3 mph6.9 kmh 30.41 in1029.8 mb 0.00 in0.0 mm 0.00 in0.0 mm 0.00 in0.0 mm
08:52 AM 64.2°F17.9°C 45.7°F7.6°C 51% 0.2 mph NE0.3 kmh NE 3.1 mph5.0 kmh 30.41 in1029.8 mb 0.00 in0.0 mm 0.00 in0.0 mm 0.00 in0.0 mm
08:47 AM 64.4°F18.0°C 45.3°F7.4°C 50% 2.5 mph NNE4.0 kmh NNE 4.3 mph6.9 kmh 30.41 in1029.8 mb 0.00 in0.0 mm 0.00 in0.0 mm 0.00 in0.0 mm
08:42 AM 64.6°F18.1°C 44.4°F6.9°C 48% 0.2 mph ESE0.3 kmh ESE 2.0 mph3.2 kmh 30.41 in1029.8 mb 0.00 in0.0 mm 0.00 in0.0 mm 0.00 in0.0 mm
08:37 AM 63.7°F17.6°C 45.7°F7.6°C 52% Calm Calm 2.0 mph3.2 kmh 30.41 in1029.8 mb 0.00 in0.0 mm 0.00 in0.0 mm 0.00 in0.0 mm
08:32 AM 62.4°F16.9°C 44.6°F7.0°C 52% 0.2 mph SE0.3 kmh SE 3.1 mph5.0 kmh 30.41 in1029.8 mb 0.00 in0.0 mm 0.00 in0.0 mm 0.00 in0.0 mm
08:27 AM 62.1°F16.7°C 44.8°F7.1°C 53% Calm Calm 2.0 mph3.2 kmh 30.41 in1029.8 mb 0.00 in0.0 mm 0.00 in0.0 mm 0.00 in0.0 mm
08:22 AM 61.5°F16.4°C 44.2°F6.8°C 53% Calm Calm 1.1 mph1.8 kmh 30.40 in1029.5 mb 0.00 in0.0 mm 0.00 in0.0 mm 0.00 in0.0 mm
08:17 AM 61.2°F16.2°C 44.4°F6.9°C 54% Calm Calm 2.0 mph3.2 kmh 30.41 in1029.8 mb 0.00 in0.0 mm 0.00 in0.0 mm 0.00 in0.0 mm
08:12 AM 61.0°F16.1°C 44.2°F6.8°C 54% 0.4 mph NE0.6 kmh NE 2.0 mph3.2 kmh 30.41 in1029.8 mb 0.00 in0.0 mm 0.00 in0.0 mm 0.00 in0.0 mm
08:07 AM 60.6°F15.9°C 44.4°F6.9°C 55% 0.9 mph SE1.4 kmh SE 3.1 mph5.0 kmh 30.41 in1029.8 mb 0.00 in0.0 mm 0.00 in0.0 mm 0.00 in0.0 mm
08:02 AM 60.1°F15.6°C 44.4°F6.9°C 56% Calm Calm 2.0 mph3.2 kmh 30.41 in1029.8 mb 0.00 in0.0 mm 0.00 in0.0 mm 0.00 in0.0 mm
07:57 AM 59.4°F15.2°C 44.1°F6.7°C 57% 0.2 mph S0.3 kmh S 2.0 mph3.2 kmh 30.41 in1029.8 mb 0.00 in0.0 mm 0.00 in0.0 mm 0.00 in0.0 mm
07:52 AM 59.0°F15.0°C 43.7°F6.5°C 57% 1.3 mph NE2.1 kmh NE 4.3 mph6.9 kmh 30.40 in1029.5 mb 0.00 in0.0 mm 0.00 in0.0 mm 0.00 in0.0 mm
07:47 AM 58.6°F14.8°C 43.9°F6.6°C 58% Calm Calm 4.3 mph6.9 kmh 30.41 in1029.8 mb 0.00 in0.0 mm 0.00 in0.0 mm 0.00 in0.0 mm
07:42 AM 58.3°F14.6°C 44.1°F6.7°C 59% 0.4 mph SE0.6 kmh SE 3.1 mph5.0 kmh 30.40 in1029.5 mb 0.00 in0.0 mm 0.00 in0.0 mm 0.00 in0.0 mm
07:37 AM 57.7°F14.3°C 43.9°F6.6°C 60% 0.2 mph ENE0.3 kmh ENE 2.0 mph3.2 kmh 30.41 in1029.8 mb 0.00 in0.0 mm 0.00 in0.0 mm 0.00 in0.0 mm
07:32 AM 57.2°F14.0°C 44.2°F6.8°C 62% 0.2 mph NE0.3 kmh NE 2.0 mph3.2 kmh 30.41 in1029.8 mb 0.00 in0.0 mm 0.00 in0.0 mm 0.00 in0.0 mm
07:27 AM 56.7°F13.7°C 44.2°F6.8°C 63% Calm Calm 2.0 mph3.2 kmh 30.41 in1029.8 mb 0.00 in0.0 mm 0.00 in0.0 mm 0.00 in0.0 mm
07:22 AM 56.1°F13.4°C 43.7°F6.5°C 63% Calm Calm 1.1 mph1.8 kmh 30.40 in1029.5 mb 0.00 in0.0 mm 0.00 in0.0 mm 0.00 in0.0 mm
07:17 AM 55.2°F12.9°C 43.7°F6.5°C 65% Calm Calm -- 30.40 in1029.5 mb 0.00 in0.0 mm 0.00 in0.0 mm 0.00 in0.0 mm
07:12 AM 54.1°F12.3°C 43.3°F6.3°C 67% Calm Calm 1.1 mph1.8 kmh 30.40 in1029.5 mb 0.00 in0.0 mm 0.00 in0.0 mm 0.00 in0.0 mm
07:07 AM 53.8°F12.1°C 43.2°F6.2°C 67% 0.2 mph SE0.3 kmh SE 1.1 mph1.8 kmh 30.40 in1029.5 mb 0.00 in0.0 mm 0.00 in0.0 mm 0.00 in0.0 mm
07:02 AM 53.4°F11.9°C 43.2°F6.2°C 68% 0.2 mph NE0.3 kmh NE 1.1 mph1.8 kmh 30.40 in1029.5 mb 0.00 in0.0 mm 0.00 in0.0 mm 0.00 in0.0 mm
06:57 AM 52.3°F11.3°C 43.2°F6.2°C 71% Calm Calm -- 30.40 in1029.5 mb 0.00 in0.0 mm 0.00 in0.0 mm 0.00 in0.0 mm
06:52 AM 51.8°F11.0°C 43.0°F6.1°C 72% Calm Calm -- 30.40 in1029.5 mb 0.00 in0.0 mm 0.00 in0.0 mm 0.00 in0.0 mm
06:47 AM 51.4°F10.8°C 42.8°F6.0°C 72% 0.2 mph NE0.3 kmh NE 1.1 mph1.8 kmh 30.40 in1029.5 mb 0.00 in0.0 mm 0.00 in0.0 mm 0.00 in0.0 mm
06:42 AM 51.3°F10.7°C 42.6°F5.9°C 72% Calm Calm -- 30.40 in1029.5 mb 0.00 in0.0 mm 0.00 in0.0 mm 0.00 in0.0 mm
06:37 AM 51.1°F10.6°C 42.8°F6.0°C 73% Calm Calm -- 30.40 in1029.5 mb 0.00 in0.0 mm 0.00 in0.0 mm 0.00 in0.0 mm
06:32 AM 50.7°F10.4°C 42.4°F5.8°C 73% Calm Calm -- 30.40 in1029.5 mb 0.00 in0.0 mm 0.00 in0.0 mm 0.00 in0.0 mm
06:27 AM 50.4°F10.2°C 42.4°F5.8°C 74% Calm Calm -- 30.40 in1029.5 mb 0.00 in0.0 mm 0.00 in0.0 mm 0.00 in0.0 mm
06:22 AM 50.2°F10.1°C 42.6°F5.9°C 75% Calm Calm -- 30.40 in1029.5 mb 0.00 in0.0 mm 0.00 in0.0 mm 0.00 in0.0 mm
06:17 AM 49.8°F9.9°C 42.3°F5.7°C 75% Calm Calm -- 30.39 in1029.1 mb 0.00 in0.0 mm 0.00 in0.0 mm 0.00 in0.0 mm
06:12 AM 49.8°F9.9°C 42.3°F5.7°C 75% Calm Calm -- 30.39 in1029.1 mb 0.00 in0.0 mm 0.00 in0.0 mm 0.00 in0.0 mm
06:07 AM 49.6°F9.8°C 42.1°F5.6°C 75% Calm Calm -- 30.39 in1029.1 mb 0.00 in0.0 mm 0.00 in0.0 mm 0.00 in0.0 mm
06:02 AM 49.6°F9.8°C 42.1°F5.6°C 75% Calm Calm -- 30.39 in1029.1 mb 0.00 in0.0 mm 0.00 in0.0 mm 0.00 in0.0 mm
05:57 AM 49.6°F9.8°C 42.4°F5.8°C 76% Calm Calm -- 30.39 in1029.1 mb 0.00 in0.0 mm 0.00 in0.0 mm 0.00 in0.0 mm
05:52 AM 49.6°F9.8°C 42.4°F5.8°C 76% Calm Calm 1.1 mph1.8 kmh 30.39 in1029.1 mb 0.00 in0.0 mm 0.00 in0.0 mm 0.00 in0.0 mm
05:47 AM 49.8°F9.9°C 42.3°F5.7°C 75% Calm Calm -- 30.39 in1029.1 mb 0.00 in0.0 mm 0.00 in0.0 mm 0.00 in0.0 mm
05:42 AM 49.8°F9.9°C 42.3°F5.7°C 75% Calm Calm 1.1 mph1.8 kmh 30.39 in1029.1 mb 0.00 in0.0 mm 0.00 in0.0 mm 0.00 in0.0 mm
05:37 AM 50.2°F10.1°C 42.6°F5.9°C 75% Calm Calm -- 30.39 in1029.1 mb 0.00 in0.0 mm 0.00 in0.0 mm 0.00 in0.0 mm
05:32 AM 50.2°F10.1°C 42.6°F5.9°C 75% Calm Calm 2.0 mph3.2 kmh 30.38 in1028.8 mb 0.00 in0.0 mm 0.00 in0.0 mm 0.00 in0.0 mm
05:27 AM 50.2°F10.1°C 42.6°F5.9°C 75% 0.2 mph NE0.3 kmh NE 1.1 mph1.8 kmh 30.38 in1028.8 mb 0.00 in0.0 mm 0.00 in0.0 mm 0.00 in0.0 mm
05:22 AM 50.2°F10.1°C 42.6°F5.9°C 75% 0.2 mph NE0.3 kmh NE 1.1 mph1.8 kmh 30.38 in1028.8 mb 0.00 in0.0 mm 0.00 in0.0 mm 0.00 in0.0 mm
05:17 AM 50.2°F10.1°C 42.6°F5.9°C 75% Calm Calm 1.1 mph1.8 kmh 30.38 in1028.8 mb 0.00 in0.0 mm 0.00 in0.0 mm 0.00 in0.0 mm
05:12 AM 50.2°F10.1°C 43.0°F6.1°C 76% 0.2 mph NE0.3 kmh NE 2.0 mph3.2 kmh 30.38 in1028.8 mb 0.00 in0.0 mm 0.00 in0.0 mm 0.00 in0.0 mm
05:07 AM 50.2°F10.1°C 42.6°F5.9°C 75% 0.2 mph NE0.3 kmh NE 1.1 mph1.8 kmh 30.38 in1028.8 mb 0.00 in0.0 mm 0.00 in0.0 mm 0.00 in0.0 mm
05:02 AM 50.2°F10.1°C 42.6°F5.9°C 75% Calm Calm 1.1 mph1.8 kmh 30.39 in1029.1 mb 0.00 in0.0 mm 0.00 in0.0 mm 0.00 in0.0 mm
04:57 AM 50.4°F10.2°C 42.8°F6.0°C 75% Calm Calm -- 30.38 in1028.8 mb 0.00 in0.0 mm 0.00 in0.0 mm 0.00 in0.0 mm
04:52 AM 50.4°F10.2°C 42.8°F6.0°C 75% Calm Calm -- 30.38 in1028.8 mb 0.00 in0.0 mm 0.00 in0.0 mm 0.00 in0.0 mm
04:47 AM 50.4°F10.2°C 42.8°F6.0°C 75% Calm Calm -- 30.38 in1028.8 mb 0.00 in0.0 mm 0.00 in0.0 mm 0.00 in0.0 mm
04:42 AM 50.4°F10.2°C 42.8°F6.0°C 75% Calm Calm 1.1 mph1.8 kmh 30.38 in1028.8 mb 0.00 in0.0 mm 0.00 in0.0 mm 0.00 in0.0 mm
04:37 AM 50.4°F10.2°C 42.4°F5.8°C 74% 0.2 mph N0.3 kmh N 1.1 mph1.8 kmh 30.38 in1028.8 mb 0.00 in0.0 mm 0.00 in0.0 mm 0.00 in0.0 mm
04:32 AM 50.5°F10.3°C 42.6°F5.9°C 74% Calm Calm -- 30.38 in1028.8 mb 0.00 in0.0 mm 0.00 in0.0 mm 0.00 in0.0 mm
04:27 AM 50.5°F10.3°C 42.6°F5.9°C 74% Calm Calm 1.1 mph1.8 kmh 30.38 in1028.8 mb 0.00 in0.0 mm 0.00 in0.0 mm 0.00 in0.0 mm
04:22 AM 50.5°F10.3°C 42.3°F5.7°C 73% Calm Calm -- 30.38 in1028.8 mb 0.00 in0.0 mm 0.00 in0.0 mm 0.00 in0.0 mm
04:17 AM 50.7°F10.4°C 42.1°F5.6°C 72% Calm Calm -- 30.38 in1028.8 mb 0.00 in0.0 mm 0.00 in0.0 mm 0.00 in0.0 mm
04:12 AM 51.1°F10.6°C 42.4°F5.8°C 72% Calm Calm -- 30.38 in1028.8 mb 0.00 in0.0 mm 0.00 in0.0 mm 0.00 in0.0 mm
04:07 AM 51.3°F10.7°C 42.6°F5.9°C 72% Calm Calm -- 30.38 in1028.8 mb 0.00 in0.0 mm 0.00 in0.0 mm 0.00 in0.0 mm
04:02 AM 51.4°F10.8°C 42.4°F5.8°C 71% Calm Calm -- 30.38 in1028.8 mb 0.00 in0.0 mm 0.00 in0.0 mm 0.00 in0.0 mm
03:57 AM 51.4°F10.8°C 42.4°F5.8°C 71% 0.2 mph NE0.3 kmh NE 1.1 mph1.8 kmh 30.38 in1028.8 mb 0.00 in0.0 mm 0.00 in0.0 mm 0.00 in0.0 mm
03:52 AM 51.6°F10.9°C 42.4°F5.8°C 71% Calm Calm 1.1 mph1.8 kmh 30.38 in1028.8 mb 0.00 in0.0 mm 0.00 in0.0 mm 0.00 in0.0 mm
03:47 AM 51.6°F10.9°C 42.4°F5.8°C 71% Calm Calm 1.1 mph1.8 kmh 30.38 in1028.8 mb 0.00 in0.0 mm 0.00 in0.0 mm 0.00 in0.0 mm
03:42 AM 51.8°F11.0°C 42.3°F5.7°C 70% 0.2 mph NE0.3 kmh NE 1.1 mph1.8 kmh 30.38 in1028.8 mb 0.00 in0.0 mm 0.00 in0.0 mm 0.00 in0.0 mm
03:37 AM 52.0°F11.1°C 42.4°F5.8°C 70% Calm Calm 2.0 mph3.2 kmh 30.38 in1028.8 mb 0.00 in0.0 mm 0.00 in0.0 mm 0.00 in0.0 mm
03:32 AM 52.0°F11.1°C 42.4°F5.8°C 70% Calm Calm -- 30.38 in1028.8 mb 0.00 in0.0 mm 0.00 in0.0 mm 0.00 in0.0 mm
03:27 AM 52.0°F11.1°C 42.4°F5.8°C 70% Calm Calm 1.1 mph1.8 kmh 30.38 in1028.8 mb 0.00 in0.0 mm 0.00 in0.0 mm 0.00 in0.0 mm
03:22 AM 52.2°F11.2°C 42.3°F5.7°C 69% Calm Calm 1.1 mph1.8 kmh 30.38 in1028.8 mb 0.00 in0.0 mm 0.00 in0.0 mm 0.00 in0.0 mm
03:17 AM 52.3°F11.3°C 42.4°F5.8°C 69% Calm Calm -- 30.38 in1028.8 mb 0.00 in0.0 mm 0.00 in0.0 mm 0.00 in0.0 mm
03:12 AM 52.3°F11.3°C 42.4°F5.8°C 69% Calm Calm 1.1 mph1.8 kmh 30.38 in1028.8 mb 0.00 in0.0 mm 0.00 in0.0 mm 0.00 in0.0 mm
03:07 AM 52.3°F11.3°C 42.1°F5.6°C 68% Calm Calm -- 30.38 in1028.8 mb 0.00 in0.0 mm 0.00 in0.0 mm 0.00 in0.0 mm
03:02 AM 52.5°F11.4°C 42.6°F5.9°C 69% Calm Calm -- 30.38 in1028.8 mb 0.00 in0.0 mm 0.00 in0.0 mm 0.00 in0.0 mm
02:57 AM 52.5°F11.4°C 42.3°F5.7°C 68% Calm Calm -- 30.38 in1028.8 mb 0.00 in0.0 mm 0.00 in0.0 mm 0.00 in0.0 mm
02:52 AM 52.5°F11.4°C 42.3°F5.7°C 68% Calm Calm -- 30.38 in1028.8 mb 0.00 in0.0 mm 0.00 in0.0 mm 0.00 in0.0 mm
02:47 AM 52.7°F11.5°C 42.1°F5.6°C 67% Calm Calm -- 30.38 in1028.8 mb 0.00 in0.0 mm 0.00 in0.0 mm 0.00 in0.0 mm
02:42 AM 52.9°F11.6°C 42.3°F5.7°C 67% Calm Calm -- 30.37 in1028.4 mb 0.00 in0.0 mm 0.00 in0.0 mm 0.00 in0.0 mm
02:37 AM 52.9°F11.6°C 42.3°F5.7°C 67% Calm Calm -- 30.37 in1028.4 mb 0.00 in0.0 mm 0.00 in0.0 mm 0.00 in0.0 mm
02:32 AM 52.9°F11.6°C 42.3°F5.7°C 67% Calm Calm -- 30.37 in1028.4 mb 0.00 in0.0 mm 0.00 in0.0 mm 0.00 in0.0 mm
02:27 AM 52.9°F11.6°C 41.9°F5.5°C 66% Calm Calm -- 30.37 in1028.4 mb 0.00 in0.0 mm 0.00 in0.0 mm 0.00 in0.0 mm
02:22 AM 52.9°F11.6°C 41.9°F5.5°C 66% Calm Calm -- 30.37 in1028.4 mb 0.00 in0.0 mm 0.00 in0.0 mm 0.00 in0.0 mm
02:17 AM 53.1°F11.7°C 42.1°F5.6°C 66% Calm Calm -- 30.37 in1028.4 mb 0.00 in0.0 mm 0.00 in0.0 mm 0.00 in0.0 mm
02:12 AM 53.2°F11.8°C 42.3°F5.7°C 66% Calm Calm -- 30.38 in1028.8 mb 0.00 in0.0 mm 0.00 in0.0 mm 0.00 in0.0 mm
02:07 AM 53.4°F11.9°C 41.9°F5.5°C 65% Calm Calm -- 30.37 in1028.4 mb 0.00 in0.0 mm 0.00 in0.0 mm 0.00 in0.0 mm
02:02 AM 53.8°F12.1°C 41.5°F5.3°C 63% Calm Calm -- 30.37 in1028.4 mb 0.00 in0.0 mm 0.00 in0.0 mm 0.00 in0.0 mm
01:57 AM 54.3°F12.4°C 41.5°F5.3°C 62% Calm Calm -- 30.37 in1028.4 mb 0.00 in0.0 mm 0.00 in0.0 mm 0.00 in0.0 mm
01:52 AM 54.7°F12.6°C 41.9°F5.5°C 62% Calm Calm -- 30.37 in1028.4 mb 0.00 in0.0 mm 0.00 in0.0 mm 0.00 in0.0 mm
01:47 AM 54.7°F12.6°C 41.5°F5.3°C 61% Calm Calm -- 30.37 in1028.4 mb 0.00 in0.0 mm 0.00 in0.0 mm 0.00 in0.0 mm
01:42 AM 54.9°F12.7°C 41.7°F5.4°C 61% Calm Calm -- 30.37 in1028.4 mb 0.00 in0.0 mm 0.00 in0.0 mm 0.00 in0.0 mm
01:37 AM 55.0°F12.8°C 41.4°F5.2°C 60% Calm Calm -- 30.37 in1028.4 mb 0.00 in0.0 mm 0.00 in0.0 mm 0.00 in0.0 mm
01:32 AM 55.0°F12.8°C 41.4°F5.2°C 60% Calm Calm -- 30.37 in1028.4 mb 0.00 in0.0 mm 0.00 in0.0 mm 0.00 in0.0 mm
01:27 AM 55.4°F13.0°C 41.4°F5.2°C 59% Calm Calm -- 30.37 in1028.4 mb 0.00 in0.0 mm 0.00 in0.0 mm 0.00 in0.0 mm
01:22 AM 55.8°F13.2°C 41.7°F5.4°C 59% Calm Calm -- 30.37 in1028.4 mb 0.00 in0.0 mm 0.00 in0.0 mm 0.00 in0.0 mm
01:17 AM 55.9°F13.3°C 41.4°F5.2°C 58% Calm Calm -- 30.37 in1028.4 mb 0.00 in0.0 mm 0.00 in0.0 mm 0.00 in0.0 mm
01:12 AM 56.3°F13.5°C 41.2°F5.1°C 57% Calm Calm -- 30.37 in1028.4 mb 0.00 in0.0 mm 0.00 in0.0 mm 0.00 in0.0 mm
01:07 AM 56.7°F13.7°C 41.5°F5.3°C 57% Calm Calm -- 30.37 in1028.4 mb 0.00 in0.0 mm 0.00 in0.0 mm 0.00 in0.0 mm
01:02 AM 56.8°F13.8°C 41.4°F5.2°C 56% Calm Calm -- 30.37 in1028.4 mb 0.00 in0.0 mm 0.00 in0.0 mm 0.00 in0.0 mm
12:57 AM 57.0°F13.9°C 41.0°F5.0°C 55% Calm Calm -- 30.37 in1028.4 mb 0.00 in0.0 mm 0.00 in0.0 mm 0.00 in0.0 mm
12:52 AM 57.4°F14.1°C 41.4°F5.2°C 55% Calm Calm -- 30.38 in1028.8 mb 0.00 in0.0 mm 0.00 in0.0 mm 0.00 in0.0 mm
12:47 AM 57.6°F14.2°C 41.5°F5.3°C 55% Calm Calm -- 30.37 in1028.4 mb 0.00 in0.0 mm 0.00 in0.0 mm 0.00 in0.0 mm
12:42 AM 57.9°F14.4°C 41.4°F5.2°C 54% Calm Calm -- 30.38 in1028.8 mb 0.00 in0.0 mm 0.00 in0.0 mm 0.00 in0.0 mm
12:37 AM 58.3°F14.6°C 41.2°F5.1°C 53% Calm Calm 1.1 mph1.8 kmh 30.38 in1028.8 mb 0.00 in0.0 mm 0.00 in0.0 mm 0.00 in0.0 mm
12:32 AM 58.6°F14.8°C 41.5°F5.3°C 53% Calm Calm 1.1 mph1.8 kmh 30.38 in1028.8 mb 0.00 in0.0 mm 0.00 in0.0 mm 0.00 in0.0 mm
12:27 AM 58.8°F14.9°C 41.2°F5.1°C 52% Calm Calm 2.0 mph3.2 kmh 30.38 in1028.8 mb 0.00 in0.0 mm 0.00 in0.0 mm 0.00 in0.0 mm
12:22 AM 58.8°F14.9°C 41.2°F5.1°C 52% 0.4 mph NE0.6 kmh NE 2.0 mph3.2 kmh 30.38 in1028.8 mb 0.00 in0.0 mm 0.00 in0.0 mm 0.00 in0.0 mm
12:17 AM 58.8°F14.9°C 41.2°F5.1°C 52% Calm Calm 1.1 mph1.8 kmh 30.38 in1028.8 mb 0.00 in0.0 mm 0.00 in0.0 mm 0.00 in0.0 mm
12:12 AM 59.2°F15.1°C 41.0°F5.0°C 51% 0.2 mph NNE0.3 kmh NNE 1.1 mph1.8 kmh 30.38 in1028.8 mb 0.00 in0.0 mm 0.00 in0.0 mm 0.00 in0.0 mm
12:07 AM 59.4°F15.2°C 41.2°F5.1°C 51% Calm Calm 1.1 mph1.8 kmh 30.38 in1028.8 mb 0.00 in0.0 mm 0.00 in0.0 mm 0.00 in0.0 mm
12:02 AM 59.5°F15.3°C 41.4°F5.2°C 51% Calm Calm 1.1 mph1.8 kmh 30.38 in1028.8 mb 0.00 in0.0 mm 0.00 in0.0 mm 0.00 in0.0 mm